Terminal Aerodrome Forecast
Issued by NWS

Home | Current Version | Previous Version | Text Only | Print | Product List | Glossary On
Versions: 1 2 3 4 5 6 7 8 9 10 11 12 13 14
000
FTUS46 KMFR 290601 CCA
TAFLMT
TAF COR
KLMT 290601Z 2906/3006 18009KT P6SM OVC150
     FM290700 19014G20KT P6SM SCT060 BKN150
     FM291300 21020G30KT P6SM -SHRA BKN035 OVC050
     FM291600 23018G32KT P6SM BKN070
     FM300300 24012KT P6SM BKN070=

USA.gov is the U.S. government's official web portal to all federal, state and local government web resources and services.